sensor_id;sensor_type;location;lat;lon;timestamp;P1;durP1;ratioP1;P2;durP2;ratioP2
62401;SDS011;48440;51.224;22.506;2022-07-23T00:00:54;26.02;;;18.33;;
62401;SDS011;48440;51.224;22.506;2022-07-23T00:03:19;22.38;;;17.75;;
62401;SDS011;48440;51.224;22.506;2022-07-23T00:05:48;25.30;;;17.35;;
62401;SDS011;48440;51.224;22.506;2022-07-23T00:08:14;26.35;;;17.25;;
62401;SDS011;48440;51.224;22.506;2022-07-23T00:10:39;26.00;;;16.85;;
62401;SDS011;48440;51.224;22.506;2022-07-23T00:13:05;27.70;;;17.20;;
62401;SDS011;48440;51.224;22.506;2022-07-23T00:15:31;21.70;;;16.90;;
62401;SDS011;48440;51.224;22.506;2022-07-23T00:17:57;27.88;;;17.95;;
62401;SDS011;48440;51.224;22.506;2022-07-23T00:20:22;27.73;;;17.38;;
62401;SDS011;48440;51.224;22.506;2022-07-23T00:22:52;26.50;;;18.33;;
62401;SDS011;48440;51.224;22.506;2022-07-23T00:25:20;25.58;;;17.67;;
62401;SDS011;48440;51.224;22.506;2022-07-23T00:27:46;21.85;;;17.05;;
62401;SDS011;48440;51.224;22.506;2022-07-23T00:30:12;29.88;;;17.80;;
62401;SDS011;48440;51.224;22.506;2022-07-23T00:32:45;26.25;;;16.95;;
62401;SDS011;48440;51.224;22.506;2022-07-23T00:35:15;26.45;;;17.55;;
62401;SDS011;48440;51.224;22.506;2022-07-23T00:37:41;21.52;;;17.33;;
62401;SDS011;48440;51.224;22.506;2022-07-23T00:40:07;27.17;;;18.35;;
62401;SDS011;48440;51.224;22.506;2022-07-23T00:42:33;22.58;;;17.52;;
62401;SDS011;48440;51.224;22.506;2022-07-23T00:44:59;24.95;;;18.10;;
62401;SDS011;48440;51.224;22.506;2022-07-23T00:47:25;24.83;;;17.25;;
62401;SDS011;48440;51.224;22.506;2022-07-23T00:49:51;27.00;;;18.92;;
62401;SDS011;48440;51.224;22.506;2022-07-23T00:52:17;28.08;;;18.13;;
62401;SDS011;48440;51.224;22.506;2022-07-23T00:54:42;22.42;;;17.13;;
62401;SDS011;48440;51.224;22.506;2022-07-23T00:57:08;24.70;;;17.55;;
62401;SDS011;48440;51.224;22.506;2022-07-23T00:59:34;26.65;;;17.65;;
62401;SDS011;48440;51.224;22.506;2022-07-23T01:01:59;26.65;;;17.52;;
62401;SDS011;48440;51.224;22.506;2022-07-23T01:04:25;27.50;;;18.27;;
62401;SDS011;48440;51.224;22.506;2022-07-23T01:06:51;23.25;;;18.00;;
62401;SDS011;48440;51.224;22.506;2022-07-23T01:09:17;28.48;;;17.33;;
62401;SDS011;48440;51.224;22.506;2022-07-23T01:11:42;25.45;;;17.95;;
62401;SDS011;48440;51.224;22.506;2022-07-23T01:14:09;22.52;;;17.63;;
62401;SDS011;48440;51.224;22.506;2022-07-23T01:16:39;23.60;;;17.88;;
62401;SDS011;48440;51.224;22.506;2022-07-23T01:19:05;23.52;;;18.60;;
62401;SDS011;48440;51.224;22.506;2022-07-23T01:21:37;28.50;;;18.52;;
62401;SDS011;48440;51.224;22.506;2022-07-23T01:24:07;26.00;;;17.55;;
62401;SDS011;48440;51.224;22.506;2022-07-23T01:26:34;24.73;;;17.33;;
62401;SDS011;48440;51.224;22.506;2022-07-23T01:29:01;26.48;;;17.20;;
62401;SDS011;48440;51.224;22.506;2022-07-23T01:31:27;25.83;;;17.23;;
62401;SDS011;48440;51.224;22.506;2022-07-23T01:33:53;23.40;;;16.80;;
62401;SDS011;48440;51.224;22.506;2022-07-23T01:36:19;27.23;;;17.05;;
62401;SDS011;48440;51.224;22.506;2022-07-23T01:38:44;28.65;;;17.58;;
62401;SDS011;48440;51.224;22.506;2022-07-23T01:41:10;25.02;;;17.50;;
62401;SDS011;48440;51.224;22.506;2022-07-23T01:43:36;23.90;;;17.45;;
62401;SDS011;48440;51.224;22.506;2022-07-23T01:46:01;26.00;;;17.20;;
62401;SDS011;48440;51.224;22.506;2022-07-23T01:48:27;23.60;;;16.75;;
62401;SDS011;48440;51.224;22.506;2022-07-23T01:50:52;24.38;;;16.35;;
62401;SDS011;48440;51.224;22.506;2022-07-23T01:53:18;27.35;;;17.45;;
62401;SDS011;48440;51.224;22.506;2022-07-23T01:55:43;27.25;;;16.83;;
62401;SDS011;48440;51.224;22.506;2022-07-23T01:58:09;21.27;;;16.23;;
62401;SDS011;48440;51.224;22.506;2022-07-23T02:00:35;26.98;;;16.15;;
62401;SDS011;48440;51.224;22.506;2022-07-23T02:03:01;26.15;;;17.60;;
62401;SDS011;48440;51.224;22.506;2022-07-23T02:05:27;20.17;;;15.73;;
62401;SDS011;48440;51.224;22.506;2022-07-23T02:07:57;23.35;;;16.52;;
62401;SDS011;48440;51.224;22.506;2022-07-23T02:10:23;21.20;;;15.30;;
62401;SDS011;48440;51.224;22.506;2022-07-23T02:12:49;22.30;;;16.35;;
62401;SDS011;48440;51.224;22.506;2022-07-23T02:15:15;23.30;;;15.73;;
62401;SDS011;48440;51.224;22.506;2022-07-23T02:17:40;22.38;;;15.70;;
62401;SDS011;48440;51.224;22.506;2022-07-23T02:20:07;24.23;;;16.13;;
62401;SDS011;48440;51.224;22.506;2022-07-23T02:22:33;21.23;;;16.13;;
62401;SDS011;48440;51.224;22.506;2022-07-23T02:24:59;17.75;;;15.77;;
62401;SDS011;48440;51.224;22.506;2022-07-23T02:27:25;21.70;;;15.60;;
62401;SDS011;48440;51.224;22.506;2022-07-23T02:29:51;21.17;;;15.02;;
62401;SDS011;48440;51.224;22.506;2022-07-23T02:32:16;22.08;;;15.98;;
62401;SDS011;48440;51.224;22.506;2022-07-23T02:34:42;20.98;;;14.82;;
62401;SDS011;48440;51.224;22.506;2022-07-23T02:37:08;22.00;;;15.93;;
62401;SDS011;48440;51.224;22.506;2022-07-23T02:39:34;19.15;;;14.95;;
62401;SDS011;48440;51.224;22.506;2022-07-23T02:42:00;25.00;;;15.73;;
62401;SDS011;48440;51.224;22.506;2022-07-23T02:44:26;22.35;;;15.88;;
62401;SDS011;48440;51.224;22.506;2022-07-23T02:46:52;19.73;;;15.65;;
62401;SDS011;48440;51.224;22.506;2022-07-23T02:49:17;20.73;;;14.80;;
62401;SDS011;48440;51.224;22.506;2022-07-23T02:51:43;22.15;;;14.48;;
62401;SDS011;48440;51.224;22.506;2022-07-23T02:54:08;22.98;;;15.40;;
62401;SDS011;48440;51.224;22.506;2022-07-23T02:56:34;29.75;;;15.82;;
62401;SDS011;48440;51.224;22.506;2022-07-23T02:58:59;21.58;;;15.48;;
62401;SDS011;48440;51.224;22.506;2022-07-23T03:01:25;21.48;;;15.35;;
62401;SDS011;48440;51.224;22.506;2022-07-23T03:03:51;23.02;;;15.27;;
62401;SDS011;48440;51.224;22.506;2022-07-23T03:06:16;26.75;;;16.27;;
62401;SDS011;48440;51.224;22.506;2022-07-23T03:08:42;20.38;;;15.60;;
62401;SDS011;48440;51.224;22.506;2022-07-23T03:11:08;23.90;;;15.95;;
62401;SDS011;48440;51.224;22.506;2022-07-23T03:13:39;23.98;;;14.68;;
62401;SDS011;48440;51.224;22.506;2022-07-23T03:16:05;22.85;;;15.25;;
62401;SDS011;48440;51.224;22.506;2022-07-23T03:18:31;25.63;;;15.48;;
62401;SDS011;48440;51.224;22.506;2022-07-23T03:20:57;26.90;;;15.68;;
62401;SDS011;48440;51.224;22.506;2022-07-23T03:23:22;20.75;;;14.95;;
62401;SDS011;48440;51.224;22.506;2022-07-23T03:25:48;22.10;;;15.32;;
62401;SDS011;48440;51.224;22.506;2022-07-23T03:28:14;20.33;;;14.30;;
62401;SDS011;48440;51.224;22.506;2022-07-23T03:30:43;18.85;;;14.43;;
62401;SDS011;48440;51.224;22.506;2022-07-23T03:33:13;24.42;;;14.77;;
62401;SDS011;48440;51.224;22.506;2022-07-23T03:35:41;28.42;;;15.20;;
62401;SDS011;48440;51.224;22.506;2022-07-23T03:38:08;23.88;;;15.65;;
62401;SDS011;48440;51.224;22.506;2022-07-23T03:40:34;23.35;;;14.93;;
62401;SDS011;48440;51.224;22.506;2022-07-23T03:43:00;19.45;;;14.73;;
62401;SDS011;48440;51.224;22.506;2022-07-23T03:45:25;20.98;;;15.15;;
62401;SDS011;48440;51.224;22.506;2022-07-23T03:47:51;20.65;;;14.18;;
62401;SDS011;48440;51.224;22.506;2022-07-23T03:50:17;21.85;;;15.00;;
62401;SDS011;48440;51.224;22.506;2022-07-23T03:52:43;19.40;;;15.38;;
62401;SDS011;48440;51.224;22.506;2022-07-23T03:55:09;22.15;;;15.75;;
62401;SDS011;48440;51.224;22.506;2022-07-23T03:57:35;23.25;;;15.82;;
62401;SDS011;48440;51.224;22.506;2022-07-23T04:00:00;23.50;;;15.85;;
62401;SDS011;48440;51.224;22.506;2022-07-23T04:02:27;29.65;;;17.55;;
62401;SDS011;48440;51.224;22.506;2022-07-23T04:04:53;27.52;;;16.83;;
62401;SDS011;48440;51.224;22.506;2022-07-23T04:07:19;25.70;;;17.27;;
62401;SDS011;48440;51.224;22.506;2022-07-23T04:09:44;26.98;;;15.88;;
62401;SDS011;48440;51.224;22.506;2022-07-23T04:12:10;23.15;;;16.02;;
62401;SDS011;48440;51.224;22.506;2022-07-23T04:14:35;24.80;;;16.40;;
62401;SDS011;48440;51.224;22.506;2022-07-23T04:17:01;24.10;;;15.88;;
62401;SDS011;48440;51.224;22.506;2022-07-23T04:19:27;20.58;;;14.90;;
62401;SDS011;48440;51.224;22.506;2022-07-23T04:21:53;23.08;;;16.67;;
62401;SDS011;48440;51.224;22.506;2022-07-23T04:24:18;20.15;;;16.10;;
62401;SDS011;48440;51.224;22.506;2022-07-23T04:26:44;24.77;;;16.58;;
62401;SDS011;48440;51.224;22.506;2022-07-23T04:29:11;20.38;;;15.25;;
62401;SDS011;48440;51.224;22.506;2022-07-23T04:31:37;22.30;;;16.10;;
62401;SDS011;48440;51.224;22.506;2022-07-23T04:34:03;24.33;;;15.75;;
62401;SDS011;48440;51.224;22.506;2022-07-23T04:36:28;23.70;;;15.13;;
62401;SDS011;48440;51.224;22.506;2022-07-23T04:38:54;23.70;;;15.55;;
62401;SDS011;48440;51.224;22.506;2022-07-23T04:41:20;22.98;;;15.25;;
62401;SDS011;48440;51.224;22.506;2022-07-23T04:43:45;21.52;;;15.05;;
62401;SDS011;48440;51.224;22.506;2022-07-23T04:46:11;22.23;;;15.20;;
62401;SDS011;48440;51.224;22.506;2022-07-23T04:48:36;17.40;;;13.90;;
62401;SDS011;48440;51.224;22.506;2022-07-23T04:51:02;22.52;;;14.57;;
62401;SDS011;48440;51.224;22.506;2022-07-23T04:53:28;19.58;;;14.68;;
62401;SDS011;48440;51.224;22.506;2022-07-23T04:55:54;19.17;;;14.20;;
62401;SDS011;48440;51.224;22.506;2022-07-23T04:58:20;16.63;;;14.05;;
62401;SDS011;48440;51.224;22.506;2022-07-23T05:00:46;20.25;;;14.07;;
62401;SDS011;48440;51.224;22.506;2022-07-23T05:03:11;23.95;;;13.95;;
62401;SDS011;48440;51.224;22.506;2022-07-23T05:05:37;18.92;;;14.07;;
62401;SDS011;48440;51.224;22.506;2022-07-23T05:08:03;23.55;;;14.18;;
62401;SDS011;48440;51.224;22.506;2022-07-23T05:10:29;19.35;;;14.00;;
62401;SDS011;48440;51.224;22.506;2022-07-23T05:12:54;20.05;;;14.52;;
62401;SDS011;48440;51.224;22.506;2022-07-23T05:15:20;21.40;;;13.40;;
62401;SDS011;48440;51.224;22.506;2022-07-23T05:17:45;19.23;;;13.88;;
62401;SDS011;48440;51.224;22.506;2022-07-23T05:20:11;19.52;;;14.65;;
62401;SDS011;48440;51.224;22.506;2022-07-23T05:22:38;18.63;;;14.32;;
62401;SDS011;48440;51.224;22.506;2022-07-23T05:25:04;18.58;;;13.85;;
62401;SDS011;48440;51.224;22.506;2022-07-23T05:27:30;16.15;;;14.05;;
62401;SDS011;48440;51.224;22.506;2022-07-23T05:29:55;19.50;;;14.57;;
62401;SDS011;48440;51.224;22.506;2022-07-23T05:32:21;18.17;;;13.52;;
62401;SDS011;48440;51.224;22.506;2022-07-23T05:34:46;25.40;;;14.20;;
62401;SDS011;48440;51.224;22.506;2022-07-23T05:37:12;17.98;;;13.98;;
62401;SDS011;48440;51.224;22.506;2022-07-23T05:39:37;20.98;;;13.48;;
62401;SDS011;48440;51.224;22.506;2022-07-23T05:42:03;18.75;;;14.02;;
62401;SDS011;48440;51.224;22.506;2022-07-23T05:44:28;18.75;;;13.25;;
62401;SDS011;48440;51.224;22.506;2022-07-23T05:46:54;18.63;;;13.30;;
62401;SDS011;48440;51.224;22.506;2022-07-23T05:49:20;18.67;;;13.50;;
62401;SDS011;48440;51.224;22.506;2022-07-23T05:51:45;17.52;;;13.43;;
62401;SDS011;48440;51.224;22.506;2022-07-23T05:54:11;18.27;;;13.85;;
62401;SDS011;48440;51.224;22.506;2022-07-23T05:56:36;23.33;;;13.93;;
62401;SDS011;48440;51.224;22.506;2022-07-23T05:59:02;21.92;;;13.57;;
62401;SDS011;48440;51.224;22.506;2022-07-23T06:01:28;18.88;;;12.55;;
62401;SDS011;48440;51.224;22.506;2022-07-23T06:03:53;18.40;;;13.43;;
62401;SDS011;48440;51.224;22.506;2022-07-23T06:06:20;16.52;;;13.10;;
62401;SDS011;48440;51.224;22.506;2022-07-23T06:08:45;19.63;;;13.07;;
62401;SDS011;48440;51.224;22.506;2022-07-23T06:11:11;21.48;;;13.15;;
62401;SDS011;48440;51.224;22.506;2022-07-23T06:13:36;16.70;;;12.73;;
62401;SDS011;48440;51.224;22.506;2022-07-23T06:16:02;19.15;;;12.73;;
62401;SDS011;48440;51.224;22.506;2022-07-23T06:18:28;18.27;;;12.43;;
62401;SDS011;48440;51.224;22.506;2022-07-23T06:20:53;20.70;;;12.93;;
62401;SDS011;48440;51.224;22.506;2022-07-23T06:23:19;16.30;;;12.38;;
62401;SDS011;48440;51.224;22.506;2022-07-23T06:25:45;20.52;;;13.50;;
62401;SDS011;48440;51.224;22.506;2022-07-23T06:28:11;22.05;;;13.63;;
62401;SDS011;48440;51.224;22.506;2022-07-23T06:30:37;19.27;;;13.07;;
62401;SDS011;48440;51.224;22.506;2022-07-23T06:33:02;17.42;;;12.27;;
62401;SDS011;48440;51.224;22.506;2022-07-23T06:35:28;19.08;;;13.20;;
62401;SDS011;48440;51.224;22.506;2022-07-23T06:37:54;19.38;;;13.35;;
62401;SDS011;48440;51.224;22.506;2022-07-23T06:40:20;20.52;;;13.48;;
62401;SDS011;48440;51.224;22.506;2022-07-23T06:42:46;20.02;;;13.40;;
62401;SDS011;48440;51.224;22.506;2022-07-23T06:45:14;18.67;;;13.60;;
62401;SDS011;48440;51.224;22.506;2022-07-23T06:47:40;18.45;;;14.60;;
62401;SDS011;48440;51.224;22.506;2022-07-23T06:50:07;18.67;;;14.38;;
62401;SDS011;48440;51.224;22.506;2022-07-23T06:52:32;20.60;;;13.68;;
62401;SDS011;48440;51.224;22.506;2022-07-23T06:54:58;20.23;;;14.13;;
62401;SDS011;48440;51.224;22.506;2022-07-23T06:57:24;15.52;;;13.95;;
62401;SDS011;48440;51.224;22.506;2022-07-23T06:59:50;21.88;;;14.10;;
62401;SDS011;48440;51.224;22.506;2022-07-23T07:02:16;19.83;;;13.55;;
62401;SDS011;48440;51.224;22.506;2022-07-23T07:04:42;20.23;;;15.05;;
62401;SDS011;48440;51.224;22.506;2022-07-23T07:07:08;21.10;;;14.18;;
62401;SDS011;48440;51.224;22.506;2022-07-23T07:09:34;20.48;;;14.18;;
62401;SDS011;48440;51.224;22.506;2022-07-23T07:11:59;18.73;;;14.88;;
62401;SDS011;48440;51.224;22.506;2022-07-23T07:14:25;16.67;;;13.80;;
62401;SDS011;48440;51.224;22.506;2022-07-23T07:16:51;19.05;;;13.80;;
62401;SDS011;48440;51.224;22.506;2022-07-23T07:19:17;18.30;;;13.57;;
62401;SDS011;48440;51.224;22.506;2022-07-23T07:21:44;19.25;;;14.35;;
62401;SDS011;48440;51.224;22.506;2022-07-23T07:24:09;20.55;;;14.52;;
62401;SDS011;48440;51.224;22.506;2022-07-23T07:26:35;21.98;;;14.55;;
62401;SDS011;48440;51.224;22.506;2022-07-23T07:29:01;20.73;;;14.85;;
62401;SDS011;48440;51.224;22.506;2022-07-23T07:31:27;17.98;;;14.50;;
62401;SDS011;48440;51.224;22.506;2022-07-23T07:33:53;20.08;;;14.88;;
62401;SDS011;48440;51.224;22.506;2022-07-23T07:36:21;17.52;;;14.57;;
62401;SDS011;48440;51.224;22.506;2022-07-23T07:38:48;20.17;;;15.27;;
62401;SDS011;48440;51.224;22.506;2022-07-23T07:41:13;21.48;;;14.30;;
62401;SDS011;48440;51.224;22.506;2022-07-23T07:43:39;18.40;;;14.75;;
62401;SDS011;48440;51.224;22.506;2022-07-23T07:46:05;17.15;;;14.15;;
62401;SDS011;48440;51.224;22.506;2022-07-23T07:48:35;25.23;;;14.27;;
62401;SDS011;48440;51.224;22.506;2022-07-23T07:51:01;19.00;;;13.68;;
62401;SDS011;48440;51.224;22.506;2022-07-23T07:53:28;18.58;;;13.88;;
62401;SDS011;48440;51.224;22.506;2022-07-23T07:55:54;20.08;;;14.02;;
62401;SDS011;48440;51.224;22.506;2022-07-23T07:58:19;16.67;;;13.93;;
62401;SDS011;48440;51.224;22.506;2022-07-23T08:00:45;20.05;;;15.20;;
62401;SDS011;48440;51.224;22.506;2022-07-23T08:03:11;18.98;;;13.65;;
62401;SDS011;48440;51.224;22.506;2022-07-23T08:05:37;22.10;;;12.68;;
62401;SDS011;48440;51.224;22.506;2022-07-23T08:08:03;18.35;;;13.45;;
62401;SDS011;48440;51.224;22.506;2022-07-23T08:10:29;20.38;;;14.05;;
62401;SDS011;48440;51.224;22.506;2022-07-23T08:12:56;19.08;;;13.70;;
62401;SDS011;48440;51.224;22.506;2022-07-23T08:15:24;16.40;;;13.40;;
62401;SDS011;48440;51.224;22.506;2022-07-23T08:17:51;18.88;;;13.48;;
62401;SDS011;48440;51.224;22.506;2022-07-23T08:20:21;15.45;;;12.88;;
62401;SDS011;48440;51.224;22.506;2022-07-23T08:25:33;18.08;;;14.73;;
62401;SDS011;48440;51.224;22.506;2022-07-23T08:28:01;20.58;;;14.48;;
62401;SDS011;48440;51.224;22.506;2022-07-23T08:30:28;19.38;;;14.77;;
62401;SDS011;48440;51.224;22.506;2022-07-23T08:35:30;19.15;;;14.15;;
62401;SDS011;48440;51.224;22.506;2022-07-23T08:37:59;19.30;;;14.13;;
62401;SDS011;48440;51.224;22.506;2022-07-23T08:40:29;18.15;;;14.20;;
62401;SDS011;48440;51.224;22.506;2022-07-23T08:42:58;16.63;;;12.98;;
62401;SDS011;48440;51.224;22.506;2022-07-23T08:45:24;19.83;;;14.00;;
62401;SDS011;48440;51.224;22.506;2022-07-23T08:47:52;16.35;;;13.10;;
62401;SDS011;48440;51.224;22.506;2022-07-23T08:50:20;18.25;;;13.02;;
62401;SDS011;48440;51.224;22.506;2022-07-23T08:52:48;20.80;;;13.70;;
62401;SDS011;48440;51.224;22.506;2022-07-23T08:55:20;15.38;;;13.77;;
62401;SDS011;48440;51.224;22.506;2022-07-23T08:57:51;20.95;;;14.05;;
62401;SDS011;48440;51.224;22.506;2022-07-23T09:00:19;17.13;;;13.88;;
62401;SDS011;48440;51.224;22.506;2022-07-23T09:02:46;16.85;;;14.15;;
62401;SDS011;48440;51.224;22.506;2022-07-23T09:05:12;16.48;;;14.02;;
62401;SDS011;48440;51.224;22.506;2022-07-23T09:08:02;22.38;;;13.77;;
62401;SDS011;48440;51.224;22.506;2022-07-23T09:10:33;16.20;;;13.40;;
62401;SDS011;48440;51.224;22.506;2022-07-23T09:13:23;15.13;;;12.73;;
62401;SDS011;48440;51.224;22.506;2022-07-23T09:15:49;17.45;;;12.98;;
62401;SDS011;48440;51.224;22.506;2022-07-23T09:18:16;15.43;;;13.65;;
62401;SDS011;48440;51.224;22.506;2022-07-23T09:20:43;16.40;;;14.00;;
62401;SDS011;48440;51.224;22.506;2022-07-23T09:23:09;17.55;;;13.30;;
62401;SDS011;48440;51.224;22.506;2022-07-23T09:25:35;18.25;;;14.25;;
62401;SDS011;48440;51.224;22.506;2022-07-23T09:28:01;20.85;;;14.38;;
62401;SDS011;48440;51.224;22.506;2022-07-23T09:30:32;16.67;;;14.00;;
62401;SDS011;48440;51.224;22.506;2022-07-23T09:33:14;16.55;;;13.88;;
62401;SDS011;48440;51.224;22.506;2022-07-23T09:35:44;17.65;;;15.50;;
62401;SDS011;48440;51.224;22.506;2022-07-23T09:38:16;16.42;;;14.43;;
62401;SDS011;48440;51.224;22.506;2022-07-23T09:40:47;21.98;;;14.20;;
62401;SDS011;48440;51.224;22.506;2022-07-23T09:43:31;23.45;;;14.63;;
62401;SDS011;48440;51.224;22.506;2022-07-23T09:48:55;20.17;;;14.07;;
62401;SDS011;48440;51.224;22.506;2022-07-23T09:51:22;17.92;;;13.93;;
62401;SDS011;48440;51.224;22.506;2022-07-23T09:53:59;19.13;;;14.02;;
62401;SDS011;48440;51.224;22.506;2022-07-23T09:56:25;15.27;;;13.65;;
62401;SDS011;48440;51.224;22.506;2022-07-23T09:58:53;15.95;;;13.43;;
62401;SDS011;48440;51.224;22.506;2022-07-23T10:01:51;17.85;;;14.10;;
62401;SDS011;48440;51.224;22.506;2022-07-23T10:04:20;21.40;;;14.07;;
62401;SDS011;48440;51.224;22.506;2022-07-23T10:06:48;16.60;;;14.23;;
62401;SDS011;48440;51.224;22.506;2022-07-23T10:09:18;17.00;;;13.60;;
62401;SDS011;48440;51.224;22.506;2022-07-23T10:11:52;21.00;;;14.23;;
62401;SDS011;48440;51.224;22.506;2022-07-23T10:14:25;22.60;;;14.00;;
62401;SDS011;48440;51.224;22.506;2022-07-23T10:16:51;19.98;;;13.52;;
62401;SDS011;48440;51.224;22.506;2022-07-23T10:19:17;18.27;;;13.77;;
62401;SDS011;48440;51.224;22.506;2022-07-23T10:21:47;20.27;;;14.15;;
62401;SDS011;48440;51.224;22.506;2022-07-23T10:33:30;18.80;;;14.48;;
62401;SDS011;48440;51.224;22.506;2022-07-23T10:35:39;20.58;;;13.70;;
62401;SDS011;48440;51.224;22.506;2022-07-23T10:40:56;19.15;;;14.43;;
62401;SDS011;48440;51.224;22.506;2022-07-23T10:43:24;20.20;;;13.82;;
62401;SDS011;48440;51.224;22.506;2022-07-23T10:45:50;16.23;;;13.70;;
62401;SDS011;48440;51.224;22.506;2022-07-23T10:56:16;21.08;;;15.85;;
62401;SDS011;48440;51.224;22.506;2022-07-23T10:59:05;17.77;;;13.80;;
62401;SDS011;48440;51.224;22.506;2022-07-23T11:01:38;19.98;;;13.98;;
62401;SDS011;48440;51.224;22.506;2022-07-23T11:04:04;16.38;;;13.70;;
62401;SDS011;48440;51.224;22.506;2022-07-23T11:09:26;17.27;;;14.95;;
62401;SDS011;48440;51.224;22.506;2022-07-23T11:17:25;16.42;;;13.70;;
62401;SDS011;48440;51.224;22.506;2022-07-23T11:22:39;17.58;;;13.73;;
62401;SDS011;48440;51.224;22.506;2022-07-23T11:25:05;17.30;;;13.73;;
62401;SDS011;48440;51.224;22.506;2022-07-23T11:27:41;17.75;;;14.02;;
62401;SDS011;48440;51.224;22.506;2022-07-23T11:30:36;18.60;;;13.73;;
62401;SDS011;48440;51.224;22.506;2022-07-23T11:35:38;18.67;;;13.65;;
62401;SDS011;48440;51.224;22.506;2022-07-23T11:38:28;17.27;;;14.25;;
62401;SDS011;48440;51.224;22.506;2022-07-23T11:40:56;23.00;;;14.07;;
62401;SDS011;48440;51.224;22.506;2022-07-23T11:43:23;18.20;;;14.30;;
62401;SDS011;48440;51.224;22.506;2022-07-23T11:45:50;23.15;;;15.52;;
62401;SDS011;48440;51.224;22.506;2022-07-23T11:48:25;16.40;;;13.95;;
62401;SDS011;48440;51.224;22.506;2022-07-23T11:50:52;18.33;;;14.45;;
62401;SDS011;48440;51.224;22.506;2022-07-23T11:55:47;18.10;;;13.95;;
62401;SDS011;48440;51.224;22.506;2022-07-23T11:58:13;16.38;;;12.48;;
62401;SDS011;48440;51.224;22.506;2022-07-23T12:00:40;18.30;;;14.50;;
62401;SDS011;48440;51.224;22.506;2022-07-23T12:03:06;16.75;;;13.70;;
62401;SDS011;48440;51.224;22.506;2022-07-23T12:05:33;16.80;;;11.95;;
62401;SDS011;48440;51.224;22.506;2022-07-23T12:08:00;16.80;;;13.40;;
62401;SDS011;48440;51.224;22.506;2022-07-23T12:10:35;24.02;;;14.18;;
62401;SDS011;48440;51.224;22.506;2022-07-23T12:13:02;19.23;;;13.38;;
62401;SDS011;48440;51.224;22.506;2022-07-23T12:15:34;21.40;;;13.93;;
62401;SDS011;48440;51.224;22.506;2022-07-23T12:18:04;16.33;;;13.55;;
62401;SDS011;48440;51.224;22.506;2022-07-23T12:20:32;19.42;;;14.10;;
62401;SDS011;48440;51.224;22.506;2022-07-23T12:23:00;18.13;;;13.30;;
62401;SDS011;48440;51.224;22.506;2022-07-23T12:25:28;18.00;;;14.05;;
62401;SDS011;48440;51.224;22.506;2022-07-23T12:27:59;18.17;;;13.38;;
62401;SDS011;48440;51.224;22.506;2022-07-23T12:30:30;18.65;;;14.25;;
62401;SDS011;48440;51.224;22.506;2022-07-23T12:32:58;18.45;;;14.52;;
62401;SDS011;48440;51.224;22.506;2022-07-23T12:35:30;24.52;;;15.63;;
62401;SDS011;48440;51.224;22.506;2022-07-23T12:38:02;20.33;;;15.18;;
62401;SDS011;48440;51.224;22.506;2022-07-23T12:40:33;17.55;;;14.02;;
62401;SDS011;48440;51.224;22.506;2022-07-23T12:45:29;20.48;;;14.82;;
62401;SDS011;48440;51.224;22.506;2022-07-23T12:48:18;19.08;;;14.70;;
62401;SDS011;48440;51.224;22.506;2022-07-23T12:51:00;18.90;;;14.85;;
62401;SDS011;48440;51.224;22.506;2022-07-23T12:53:32;19.98;;;13.45;;
62401;SDS011;48440;51.224;22.506;2022-07-23T12:56:00;19.60;;;14.32;;
62401;SDS011;48440;51.224;22.506;2022-07-23T12:59:31;20.63;;;13.68;;
62401;SDS011;48440;51.224;22.506;2022-07-23T13:01:28;19.67;;;14.13;;
62401;SDS011;48440;51.224;22.506;2022-07-23T13:06:31;19.55;;;14.40;;
62401;SDS011;48440;51.224;22.506;2022-07-23T13:08:58;17.42;;;14.05;;
62401;SDS011;48440;51.224;22.506;2022-07-23T13:11:24;19.75;;;13.65;;
62401;SDS011;48440;51.224;22.506;2022-07-23T13:13:50;21.83;;;13.65;;
62401;SDS011;48440;51.224;22.506;2022-07-23T13:16:15;16.02;;;13.88;;
62401;SDS011;48440;51.224;22.506;2022-07-23T13:18:41;16.13;;;12.95;;
62401;SDS011;48440;51.224;22.506;2022-07-23T13:21:06;16.95;;;12.85;;
62401;SDS011;48440;51.224;22.506;2022-07-23T13:23:33;19.20;;;14.00;;
62401;SDS011;48440;51.224;22.506;2022-07-23T13:25:58;14.90;;;12.98;;
62401;SDS011;48440;51.224;22.506;2022-07-23T13:28:24;20.13;;;13.80;;
62401;SDS011;48440;51.224;22.506;2022-07-23T13:30:49;18.52;;;13.13;;
62401;SDS011;48440;51.224;22.506;2022-07-23T13:33:16;20.90;;;13.30;;
62401;SDS011;48440;51.224;22.506;2022-07-23T13:35:46;16.48;;;13.05;;
62401;SDS011;48440;51.224;22.506;2022-07-23T13:38:12;19.35;;;14.20;;
62401;SDS011;48440;51.224;22.506;2022-07-23T13:40:39;19.70;;;14.43;;
62401;SDS011;48440;51.224;22.506;2022-07-23T13:43:10;16.73;;;13.45;;
62401;SDS011;48440;51.224;22.506;2022-07-23T13:45:38;19.90;;;13.95;;
62401;SDS011;48440;51.224;22.506;2022-07-23T13:48:05;19.17;;;14.30;;
62401;SDS011;48440;51.224;22.506;2022-07-23T13:50:32;20.30;;;14.13;;
62401;SDS011;48440;51.224;22.506;2022-07-23T13:53:03;19.50;;;13.70;;
62401;SDS011;48440;51.224;22.506;2022-07-23T13:55:34;21.00;;;13.80;;
62401;SDS011;48440;51.224;22.506;2022-07-23T13:58:00;16.45;;;13.70;;
62401;SDS011;48440;51.224;22.506;2022-07-23T14:00:27;22.27;;;13.93;;
62401;SDS011;48440;51.224;22.506;2022-07-23T14:02:54;20.08;;;13.48;;
62401;SDS011;48440;51.224;22.506;2022-07-23T14:05:19;18.52;;;12.85;;
62401;SDS011;48440;51.224;22.506;2022-07-23T14:07:45;19.83;;;13.77;;
62401;SDS011;48440;51.224;22.506;2022-07-23T14:10:12;17.90;;;13.70;;
62401;SDS011;48440;51.224;22.506;2022-07-23T14:12:38;17.98;;;15.05;;
62401;SDS011;48440;51.224;22.506;2022-07-23T14:15:04;21.98;;;15.35;;
62401;SDS011;48440;51.224;22.506;2022-07-23T14:17:31;18.90;;;14.00;;
62401;SDS011;48440;51.224;22.506;2022-07-23T14:19:58;18.33;;;13.80;;
62401;SDS011;48440;51.224;22.506;2022-07-23T14:22:24;21.33;;;14.20;;
62401;SDS011;48440;51.224;22.506;2022-07-23T14:24:50;20.80;;;13.23;;
62401;SDS011;48440;51.224;22.506;2022-07-23T14:27:16;22.70;;;14.73;;
62401;SDS011;48440;51.224;22.506;2022-07-23T14:29:42;16.30;;;13.35;;
62401;SDS011;48440;51.224;22.506;2022-07-23T14:32:08;17.88;;;13.60;;
62401;SDS011;48440;51.224;22.506;2022-07-23T14:34:34;17.75;;;13.45;;
62401;SDS011;48440;51.224;22.506;2022-07-23T14:37:00;22.33;;;13.85;;
62401;SDS011;48440;51.224;22.506;2022-07-23T14:39:26;18.27;;;13.73;;
62401;SDS011;48440;51.224;22.506;2022-07-23T14:41:51;16.08;;;13.48;;
62401;SDS011;48440;51.224;22.506;2022-07-23T14:44:17;19.92;;;13.88;;
62401;SDS011;48440;51.224;22.506;2022-07-23T14:46:43;15.93;;;13.48;;
62401;SDS011;48440;51.224;22.506;2022-07-23T14:49:08;20.00;;;15.38;;
62401;SDS011;48440;51.224;22.506;2022-07-23T14:51:34;17.83;;;13.70;;
62401;SDS011;48440;51.224;22.506;2022-07-23T14:54:00;20.48;;;14.77;;
62401;SDS011;48440;51.224;22.506;2022-07-23T14:56:25;20.65;;;14.80;;
62401;SDS011;48440;51.224;22.506;2022-07-23T14:58:51;20.00;;;14.50;;